Time;durP1;ratioP1;P1;durP2;ratioP2;P2;SDS_P1;SDS_P2;PMS_P1;PMS_P2;Temp;Humidity;BMP_temperature;BMP_pressure;BME280_temperature;BME280_humidity;BME280_pressure;Samples;Min_cycle;Max_cycle;Signal;HPM_P1;HPM_P2
2022/10/22 00:02:24;;;;;;;11.07;8.48;;;;;;;;;;5029135;28;20075;-61
2022/10/22 00:04:50;;;;;;;10.27;7.43;;;;;;;;;;5030410;28;20100;-61
2022/10/22 00:07:16;;;;;;;12.97;8.83;;;;;;;;;;5028875;28;20168;-61
2022/10/22 00:09:41;;;;;;;16.35;7.40;;;;;;;;;;5030595;28;20642;-61
2022/10/22 00:12:06;;;;;;;18.17;8.50;;;;;;;;;;5029235;28;20183;-61
2022/10/22 00:14:31;;;;;;;15.80;9.17;;;;;;;;;;5030847;28;20977;-63
2022/10/22 00:16:59;;;;;;;30.80;10.05;;;;;;;;;;5028929;28;20450;-63
2022/10/22 00:19:24;;;;;;;13.57;9.50;;;;;;;;;;5015838;28;20109;-63
2022/10/22 00:21:50;;;;;;;21.27;11.10;;;;;;;;;;5028801;28;20083;-63
2022/10/22 00:24:15;;;;;;;14.13;8.95;;;;;;;;;;5030791;28;20030;-62
2022/10/22 00:26:40;;;;;;;14.30;8.43;;;;;;;;;;5030018;28;20045;-63
2022/10/22 00:29:05;;;;;;;19.08;9.82;;;;;;;;;;5034815;28;20101;-63
2022/10/22 00:31:30;;;;;;;14.05;10.00;;;;;;;;;;5032945;28;20095;-63
2022/10/22 00:33:55;;;;;;;18.30;8.37;;;;;;;;;;5034147;28;20031;-63
2022/10/22 00:36:21;;;;;;;16.90;9.43;;;;;;;;;;5032841;28;20464;-61
2022/10/22 00:38:46;;;;;;;21.70;8.88;;;;;;;;;;5034373;28;20021;-63
2022/10/22 00:41:11;;;;;;;12.15;7.63;;;;;;;;;;5033912;28;20484;-63
2022/10/22 00:43:54;;;;;;;15.40;8.18;;;;;;;;;;5032330;28;20058;-63
2022/10/22 00:46:19;;;;;;;12.95;9.30;;;;;;;;;;5032615;28;20142;-63
2022/10/22 00:48:44;;;;;;;11.50;8.97;;;;;;;;;;5033489;28;20084;-63
2022/10/22 00:51:09;;;;;;;10.60;8.50;;;;;;;;;;5034027;28;20030;-63
2022/10/22 00:53:40;;;;;;;12.75;7.80;;;;;;;;;;5032711;28;20136;-62
2022/10/22 00:56:06;;;;;;;17.83;9.82;;;;;;;;;;5033866;28;20079;-62
2022/10/22 00:58:33;;;;;;;12.63;10.55;;;;;;;;;;5032566;28;20042;-62
2022/10/22 01:00:58;;;;;;;17.42;9.93;;;;;;;;;;5034171;28;20021;-60
2022/10/22 01:03:24;;;;;;;24.57;13.03;;;;;;;;;;5031939;28;20038;-60
2022/10/22 01:05:49;;;;;;;13.93;8.93;;;;;;;;;;5033525;28;20022;-60
2022/10/22 01:08:23;;;;;;;16.85;10.18;;;;;;;;;;5031915;28;20041;-60
2022/10/22 01:10:59;;;;;;;21.45;9.25;;;;;;;;;;5033663;28;20040;-60
2022/10/22 01:13:33;;;;;;;19.45;10.98;;;;;;;;;;5031469;28;20041;-60
2022/10/22 01:16:03;;;;;;;17.58;10.43;;;;;;;;;;5034046;28;20021;-60
2022/10/22 01:18:33;;;;;;;17.60;11.35;;;;;;;;;;5031536;28;20060;-60
2022/10/22 01:21:01;;;;;;;18.33;11.55;;;;;;;;;;5033652;28;20017;-60
2022/10/22 01:23:33;;;;;;;11.00;8.18;;;;;;;;;;5032025;28;20033;-60
2022/10/22 01:26:16;;;;;;;22.17;11.82;;;;;;;;;;5033110;28;20021;-60
2022/10/22 01:29:08;;;;;;;19.08;9.90;;;;;;;;;;5031892;28;20080;-60
2022/10/22 01:31:35;;;;;;;22.27;11.18;;;;;;;;;;5029689;28;20512;-60
2022/10/22 01:34:01;;;;;;;19.92;11.05;;;;;;;;;;5033290;28;20061;-60
2022/10/22 01:36:28;;;;;;;18.85;11.30;;;;;;;;;;5031552;28;20053;-60
2022/10/22 01:38:54;;;;;;;14.55;10.88;;;;;;;;;;5032395;28;20465;-60
2022/10/22 01:41:19;;;;;;;16.60;11.45;;;;;;;;;;5030897;28;20048;-60
2022/10/22 01:43:44;;;;;;;14.37;9.87;;;;;;;;;;5032638;28;20479;-60
2022/10/22 01:46:11;;;;;;;18.33;11.45;;;;;;;;;;5032933;28;20468;-60
2022/10/22 01:48:39;;;;;;;25.13;13.07;;;;;;;;;;5031362;28;20040;-60
2022/10/22 01:51:07;;;;;;;21.08;11.32;;;;;;;;;;5033014;28;20037;-60
2022/10/22 01:53:51;;;;;;;22.48;11.63;;;;;;;;;;5031122;28;20061;-62
2022/10/22 01:56:24;;;;;;;15.45;10.95;;;;;;;;;;5031426;28;20017;-61
2022/10/22 01:59:02;;;;;;;19.65;10.25;;;;;;;;;;5032833;28;20017;-62
2022/10/22 02:01:30;;;;;;;13.90;10.15;;;;;;;;;;5031425;28;20052;-61
2022/10/22 02:04:06;;;;;;;21.50;10.10;;;;;;;;;;5032724;28;20018;-61
2022/10/22 02:06:32;;;;;;;19.08;12.88;;;;;;;;;;5031003;28;20120;-61
2022/10/22 02:08:59;;;;;;;23.33;10.60;;;;;;;;;;5032584;28;20096;-61
2022/10/22 02:11:24;;;;;;;21.52;10.95;;;;;;;;;;5030538;28;20022;-61
2022/10/22 02:13:55;;;;;;;24.15;12.55;;;;;;;;;;5032657;28;20018;-61
2022/10/22 02:16:23;;;;;;;21.65;10.93;;;;;;;;;;5031410;28;20231;-61
2022/10/22 02:18:49;;;;;;;21.67;12.73;;;;;;;;;;5032118;28;20033;-61
2022/10/22 02:21:14;;;;;;;16.60;11.07;;;;;;;;;;5032686;28;20071;-61
2022/10/22 02:23:39;;;;;;;34.13;14.35;;;;;;;;;;5030603;28;20045;-61
2022/10/22 02:26:18;;;;;;;23.87;11.57;;;;;;;;;;5032071;28;20032;-61
2022/10/22 02:28:46;;;;;;;16.52;11.18;;;;;;;;;;5030994;28;20037;-61
2022/10/22 02:31:11;;;;;;;;;;;;;;;;;;5032732;28;20044;-61
2022/10/22 02:33:40;;;;;;;17.08;10.75;;;;;;;;;;5030166;28;19913;-61
2022/10/22 02:36:05;;;;;;;24.63;15.77;;;;;;;;;;5032122;28;20447;-61
2022/10/22 02:38:31;;;;;;;27.35;13.45;;;;;;;;;;5030297;28;20124;-61
2022/10/22 02:40:56;;;;;;;24.40;13.98;;;;;;;;;;5031455;28;20071;-61
2022/10/22 02:43:23;;;;;;;28.27;14.75;;;;;;;;;;5030527;28;20042;-61
2022/10/22 02:45:48;;;;;;;19.42;12.13;;;;;;;;;;5032075;28;20112;-61
2022/10/22 02:48:13;;;;;;;18.42;11.90;;;;;;;;;;5030408;28;20437;-61
2022/10/22 02:50:39;;;;;;;30.30;14.30;;;;;;;;;;5031573;28;20516;-60
2022/10/22 02:53:04;;;;;;;26.57;12.70;;;;;;;;;;5030429;28;20033;-61
2022/10/22 02:55:29;;;;;;;26.55;13.70;;;;;;;;;;5031614;28;20412;-61
2022/10/22 02:57:54;;;;;;;26.88;14.27;;;;;;;;;;5030187;28;20044;-61
2022/10/22 03:00:19;;;;;;;23.52;12.98;;;;;;;;;;5031745;28;20500;-61
2022/10/22 03:02:44;;;;;;;27.92;14.77;;;;;;;;;;5029864;28;20034;-62
2022/10/22 03:05:10;;;;;;;30.33;15.30;;;;;;;;;;5031977;28;20491;-62
2022/10/22 03:07:35;;;;;;;20.08;13.77;;;;;;;;;;5029743;28;21003;-62
2022/10/22 03:10:00;;;;;;;24.17;14.75;;;;;;;;;;5031008;28;20100;-62
2022/10/22 03:12:25;;;;;;;29.60;15.18;;;;;;;;;;5030000;28;20060;-62
2022/10/22 03:14:50;;;;;;;29.27;14.18;;;;;;;;;;5031439;28;20499;-62
2022/10/22 03:17:16;;;;;;;24.88;14.32;;;;;;;;;;5029847;28;20445;-62
2022/10/22 03:19:41;;;;;;;26.40;13.73;;;;;;;;;;5031430;28;20021;-62
2022/10/22 03:22:14;;;;;;;30.15;15.68;;;;;;;;;;5030108;28;20033;-62
2022/10/22 03:24:41;;;;;;;27.02;14.70;;;;;;;;;;5030665;28;20503;-62
2022/10/22 03:27:07;;;;;;;29.27;15.30;;;;;;;;;;5029811;28;20041;-62
2022/10/22 03:29:34;;;;;;;24.05;13.60;;;;;;;;;;5031018;28;20017;-60
2022/10/22 03:31:59;;;;;;;31.70;14.93;;;;;;;;;;5029625;28;20112;-58
2022/10/22 03:34:24;;;;;;;20.63;12.53;;;;;;;;;;5030948;28;20101;-61
2022/10/22 03:36:50;;;;;;;24.13;14.38;;;;;;;;;;5029653;28;20416;-61
2022/10/22 03:39:16;;;;;;;32.97;14.65;;;;;;;;;;5030708;28;20023;-60
2022/10/22 03:41:43;;;;;;;25.83;13.82;;;;;;;;;;5029545;28;20037;-61
2022/10/22 03:44:08;;;;;;;34.67;16.10;;;;;;;;;;5031445;28;20059;-61
2022/10/22 03:46:33;;;;;;;17.98;12.77;;;;;;;;;;5029156;28;20029;-61
2022/10/22 03:48:58;;;;;;;23.08;13.25;;;;;;;;;;5031287;28;20389;-61
2022/10/22 03:51:25;;;;;;;17.53;11.47;;;;;;;;;;5029414;28;20058;-61
2022/10/22 03:53:50;;;;;;;29.67;12.23;;;;;;;;;;5030549;28;20025;-61
2022/10/22 03:56:16;;;;;;;14.75;12.95;;;;;;;;;;5030535;28;20014;-59
2022/10/22 03:58:41;;;;;;;17.50;11.73;;;;;;;;;;5030620;28;20056;-61
2022/10/22 04:01:07;;;;;;;34.00;15.23;;;;;;;;;;5030292;28;20067;-59
2022/10/22 04:03:32;;;;;;;21.60;13.77;;;;;;;;;;5029340;28;20061;-59
2022/10/22 04:06:01;;;;;;;28.37;12.63;;;;;;;;;;5030453;28;20107;-59
2022/10/22 04:08:27;;;;;;;28.50;13.35;;;;;;;;;;5028759;28;20453;-59
2022/10/22 04:10:52;;;;;;;26.05;12.80;;;;;;;;;;5030676;28;20076;-59
2022/10/22 04:13:17;;;;;;;22.07;14.47;;;;;;;;;;5029110;28;20048;-59
2022/10/22 04:15:42;;;;;;;30.85;12.90;;;;;;;;;;5030485;28;20450;-59
2022/10/22 04:18:07;;;;;;;28.08;14.98;;;;;;;;;;5029202;28;20053;-59
2022/10/22 04:20:32;;;;;;;26.17;14.30;;;;;;;;;;5030568;28;20083;-60
2022/10/22 04:22:57;;;;;;;21.03;13.70;;;;;;;;;;5029188;28;20048;-59
2022/10/22 04:25:23;;;;;;;24.35;14.57;;;;;;;;;;5030099;28;20022;-60
2022/10/22 04:27:48;;;;;;;23.13;13.77;;;;;;;;;;5029170;28;20091;-59
2022/10/22 04:30:13;;;;;;;20.27;12.73;;;;;;;;;;5030837;28;20024;-59
2022/10/22 04:32:38;;;;;;;27.20;13.67;;;;;;;;;;5028224;28;20481;-59
2022/10/22 04:35:03;;;;;;;24.27;15.20;;;;;;;;;;5030176;28;20053;-59
2022/10/22 04:37:28;;;;;;;22.20;13.18;;;;;;;;;;5028737;28;20045;-59
2022/10/22 04:39:54;;;;;;;25.33;15.73;;;;;;;;;;5030563;28;20091;-59
2022/10/22 04:42:19;;;;;;;27.08;14.07;;;;;;;;;;5028902;28;20485;-60
2022/10/22 04:44:44;;;;;;;30.30;15.03;;;;;;;;;;5030504;28;20524;-60
2022/10/22 04:47:09;;;;;;;21.20;13.43;;;;;;;;;;5028674;28;20460;-59
2022/10/22 04:49:34;;;;;;;22.80;13.77;;;;;;;;;;5030352;28;20428;-60
2022/10/22 04:51:59;;;;;;;32.03;16.50;;;;;;;;;;5028525;28;20521;-60
2022/10/22 04:54:25;;;;;;;26.25;15.50;;;;;;;;;;5029988;28;20100;-60
2022/10/22 04:56:50;;;;;;;29.10;15.37;;;;;;;;;;5028809;28;20041;-60
2022/10/22 04:59:15;;;;;;;25.70;15.13;;;;;;;;;;5030529;28;20451;-61
2022/10/22 05:01:42;;;;;;;27.70;15.07;;;;;;;;;;5028402;28;20040;-61
2022/10/22 05:04:07;;;;;;;22.30;13.93;;;;;;;;;;5030353;28;20013;-61
2022/10/22 05:06:33;;;;;;;23.40;13.80;;;;;;;;;;5028282;28;20040;-61
2022/10/22 05:08:59;;;;;;;27.45;14.60;;;;;;;;;;5029880;28;20095;-61
2022/10/22 05:11:29;;;;;;;27.15;15.32;;;;;;;;;;5028670;28;20021;-61
2022/10/22 05:13:55;;;;;;;28.98;14.57;;;;;;;;;;5032109;28;20043;-61
2022/10/22 05:16:20;;;;;;;28.30;15.60;;;;;;;;;;5032107;28;20473;-62
2022/10/22 05:18:45;;;;;;;24.33;14.23;;;;;;;;;;5033253;28;20087;-61
2022/10/22 05:21:11;;;;;;;27.27;16.87;;;;;;;;;;5033736;28;20037;-61
2022/10/22 05:23:37;;;;;;;27.85;16.88;;;;;;;;;;5031377;28;20036;-61
2022/10/22 05:26:03;;;;;;;28.35;15.18;;;;;;;;;;5033251;28;20033;-60
2022/10/22 05:28:28;;;;;;;26.02;13.52;;;;;;;;;;5031734;28;20057;-61
2022/10/22 05:30:55;;;;;;;26.33;14.95;;;;;;;;;;5032817;28;20473;-61
2022/10/22 05:33:21;;;;;;;32.50;15.30;;;;;;;;;;5032098;28;20580;-61
2022/10/22 05:35:46;;;;;;;22.90;15.15;;;;;;;;;;5026198;28;20030;-60
2022/10/22 05:38:11;;;;;;;31.80;16.08;;;;;;;;;;5030828;28;20051;-60
2022/10/22 05:40:36;;;;;;;33.10;13.77;;;;;;;;;;5031731;28;20025;-60
2022/10/22 05:43:01;;;;;;;27.97;14.27;;;;;;;;;;5031956;28;20443;-61
2022/10/22 05:45:27;;;;;;;20.83;14.10;;;;;;;;;;5032660;28;20030;-61
2022/10/22 05:47:52;;;;;;;23.50;13.50;;;;;;;;;;5031001;28;20030;-60
2022/10/22 05:50:17;;;;;;;25.10;13.35;;;;;;;;;;5031875;28;20444;-60
2022/10/22 05:52:42;;;;;;;25.38;13.85;;;;;;;;;;5031325;28;20045;-60
2022/10/22 05:55:07;;;;;;;25.73;13.85;;;;;;;;;;5032989;28;20556;-59
2022/10/22 05:57:32;;;;;;;25.55;15.32;;;;;;;;;;5031529;28;20034;-59
2022/10/22 05:59:58;;;;;;;26.70;16.20;;;;;;;;;;5031783;28;20021;-59
2022/10/22 06:02:23;;;;;;;37.67;14.88;;;;;;;;;;5031189;28;20038;-59
2022/10/22 06:04:48;;;;;;;20.80;14.07;;;;;;;;;;5033142;28;20025;-59
2022/10/22 06:07:14;;;;;;;29.15;15.18;;;;;;;;;;5030144;28;20046;-58
2022/10/22 06:09:39;;;;;;;25.95;13.85;;;;;;;;;;5032564;28;20052;-60
2022/10/22 06:12:09;;;;;;;28.77;14.80;;;;;;;;;;5030953;28;20501;-59
2022/10/22 06:14:34;;;;;;;20.13;13.43;;;;;;;;;;5031877;28;20199;-58
2022/10/22 06:16:59;;;;;;;18.88;14.70;;;;;;;;;;5028058;28;20132;-59
2022/10/22 06:19:25;;;;;;;23.23;13.60;;;;;;;;;;5028507;28;20132;-61
2022/10/22 06:21:51;;;;;;;28.73;14.93;;;;;;;;;;5030242;28;20042;-59
2022/10/22 06:24:16;;;;;;;22.70;14.93;;;;;;;;;;5031339;28;20036;-59
2022/10/22 06:26:41;;;;;;;19.58;12.02;;;;;;;;;;5028821;28;20130;-61
2022/10/22 06:29:07;;;;;;;23.80;15.03;;;;;;;;;;5030785;28;20033;-60
2022/10/22 06:31:35;;;;;;;24.35;13.30;;;;;;;;;;5030170;28;20424;-59
2022/10/22 06:34:01;;;;;;;33.80;14.85;;;;;;;;;;5030833;28;20320;-59
2022/10/22 06:36:26;;;;;;;25.55;13.52;;;;;;;;;;5028952;28;20073;-59
2022/10/22 06:38:52;;;;;;;24.23;13.47;;;;;;;;;;5031577;28;20089;-58
2022/10/22 06:41:18;;;;;;;23.17;13.55;;;;;;;;;;5028963;28;20014;-58
2022/10/22 06:43:47;;;;;;;18.38;13.00;;;;;;;;;;5031781;28;20473;-59
2022/10/22 06:46:14;;;;;;;24.58;13.27;;;;;;;;;;5031327;28;20033;-59
2022/10/22 06:48:39;;;;;;;20.55;12.25;;;;;;;;;;5029475;28;20034;-59
2022/10/22 06:51:06;;;;;;;24.20;13.30;;;;;;;;;;5031406;28;20035;-59
2022/10/22 06:53:31;;;;;;;16.33;12.15;;;;;;;;;;5029298;28;20033;-59
2022/10/22 06:55:56;;;;;;;33.53;14.18;;;;;;;;;;5031582;28;20026;-59
2022/10/22 06:58:22;;;;;;;26.35;13.45;;;;;;;;;;5028715;28;20095;-59
2022/10/22 07:00:47;;;;;;;19.67;12.88;;;;;;;;;;5030083;28;20029;-59
2022/10/22 07:03:13;;;;;;;15.65;11.55;;;;;;;;;;5029978;28;20049;-58
2022/10/22 07:05:38;;;;;;;30.02;14.10;;;;;;;;;;5029979;28;20596;-59
2022/10/22 07:08:04;;;;;;;28.60;12.40;;;;;;;;;;5028501;28;20094;-59
2022/10/22 07:10:29;;;;;;;18.45;10.65;;;;;;;;;;5031064;28;20025;-58
2022/10/22 07:12:54;;;;;;;20.33;11.80;;;;;;;;;;5028083;28;20168;-59
2022/10/22 07:15:19;;;;;;;16.23;10.50;;;;;;;;;;5030717;28;20096;-59
2022/10/22 07:17:44;;;;;;;19.85;14.05;;;;;;;;;;5028903;28;20483;-59
2022/10/22 07:20:09;;;;;;;26.33;11.50;;;;;;;;;;5030175;28;20412;-59
2022/10/22 07:22:35;;;;;;;19.58;12.73;;;;;;;;;;5028657;28;20072;-58
2022/10/22 07:25:00;;;;;;;28.95;15.75;;;;;;;;;;5030977;28;20060;-58
2022/10/22 07:27:25;;;;;;;26.03;13.13;;;;;;;;;;5026237;28;20044;-59
2022/10/22 07:29:50;;;;;;;20.35;10.80;;;;;;;;;;5033047;28;20456;-59
2022/10/22 07:32:15;;;;;;;18.30;10.48;;;;;;;;;;5028733;28;20032;-59
2022/10/22 07:34:40;;;;;;;15.90;8.38;;;;;;;;;;5030227;28;20076;-59
2022/10/22 07:37:05;;;;;;;16.57;8.57;;;;;;;;;;5016443;28;20041;-59
2022/10/22 07:39:31;;;;;;;17.02;8.30;;;;;;;;;;5027917;28;20497;-59
2022/10/22 07:41:56;;;;;;;12.03;7.77;;;;;;;;;;5027526;28;20148;-59
2022/10/22 07:44:21;;;;;;;8.03;6.57;;;;;;;;;;5023255;28;20653;-58
2022/10/22 07:46:46;;;;;;;17.75;8.32;;;;;;;;;;5028198;28;20049;-58
2022/10/22 07:49:11;;;;;;;16.00;7.47;;;;;;;;;;5030512;28;20029;-59
2022/10/22 07:51:36;;;;;;;13.43;6.50;;;;;;;;;;5027963;28;20412;-59
2022/10/22 07:54:02;;;;;;;19.67;6.57;;;;;;;;;;5030229;28;20029;-59
2022/10/22 07:56:28;;;;;;;15.95;7.80;;;;;;;;;;5028663;28;20139;-58
2022/10/22 07:58:53;;;;;;;14.50;7.47;;;;;;;;;;5029595;28;20564;-58
2022/10/22 08:01:18;;;;;;;12.40;8.07;;;;;;;;;;5028664;28;20021;-58
2022/10/22 08:03:43;;;;;;;11.10;5.80;;;;;;;;;;5029800;28;20017;-58
2022/10/22 08:06:10;;;;;;;11.23;6.43;;;;;;;;;;5029568;28;20048;-59
2022/10/22 08:08:35;;;;;;;13.02;5.38;;;;;;;;;;5028886;28;20456;-59
2022/10/22 08:11:00;;;;;;;12.38;6.65;;;;;;;;;;5029731;28;20029;-58
2022/10/22 08:13:26;;;;;;;14.82;5.93;;;;;;;;;;5028204;28;20033;-58
2022/10/22 08:15:51;;;;;;;12.68;4.63;;;;;;;;;;5030350;28;20507;-58
2022/10/22 08:18:16;;;;;;;16.10;5.50;;;;;;;;;;5028788;28;20132;-58
2022/10/22 08:20:42;;;;;;;17.60;6.80;;;;;;;;;;5029876;28;20428;-58
2022/10/22 08:23:07;;;;;;;7.53;6.20;;;;;;;;;;5028869;28;20124;-59
2022/10/22 08:25:32;;;;;;;13.25;5.57;;;;;;;;;;5029496;28;20448;-59
2022/10/22 08:27:57;;;;;;;9.55;5.00;;;;;;;;;;5027787;28;20034;-59
2022/10/22 08:30:22;;;;;;;11.10;5.25;;;;;;;;;;5028460;28;20385;-57
2022/10/22 08:32:47;;;;;;;12.95;5.95;;;;;;;;;;5028783;28;20040;-58
2022/10/22 08:35:13;;;;;;;13.97;6.10;;;;;;;;;;5029735;28;20045;-59
2022/10/22 08:37:38;;;;;;;20.53;7.00;;;;;;;;;;5028419;28;20475;-59
2022/10/22 08:40:03;;;;;;;9.43;3.58;;;;;;;;;;5029513;28;20482;-59
2022/10/22 08:42:35;;;;;;;11.20;5.35;;;;;;;;;;5026747;28;20460;-59
2022/10/22 08:45:07;;;;;;;17.42;4.65;;;;;;;;;;5029697;28;20060;-58
2022/10/22 08:47:42;;;;;;;17.80;5.72;;;;;;;;;;5029214;28;20037;-58
2022/10/22 08:50:09;;;;;;;14.63;4.75;;;;;;;;;;5033750;28;20018;-59
2022/10/22 08:52:35;;;;;;;11.20;3.95;;;;;;;;;;5031731;28;20445;-59
2022/10/22 08:55:01;;;;;;;19.65;5.50;;;;;;;;;;5033809;28;20021;-59
2022/10/22 08:57:26;;;;;;;13.23;5.07;;;;;;;;;;5031768;28;20037;-59
2022/10/22 09:00:09;;;;;;;11.68;3.67;;;;;;;;;;5032881;28;20025;-59
2022/10/22 09:02:55;;;;;;;9.07;2.67;;;;;;;;;;5032007;28;20041;-59
2022/10/22 09:05:29;;;;;;;11.10;3.80;;;;;;;;;;5032624;28;20381;-59
2022/10/22 09:07:54;;;;;;;6.80;2.92;;;;;;;;;;5031599;28;20687;-59
2022/10/22 09:10:21;;;;;;;7.88;3.08;;;;;;;;;;5032279;28;20014;-59
2022/10/22 09:12:46;;;;;;;11.20;4.30;;;;;;;;;;5020073;28;20029;-59
2022/10/22 09:15:13;;;;;;;10.02;4.22;;;;;;;;;;5033540;28;20013;-59
2022/10/22 09:17:48;;;;;;;13.68;5.00;;;;;;;;;;5023643;28;20129;-59
2022/10/22 09:20:27;;;;;;;10.15;3.75;;;;;;;;;;5011681;28;20021;-59
2022/10/22 09:23:01;;;;;;;6.03;4.55;;;;;;;;;;5030598;28;20030;-59
2022/10/22 09:25:27;;;;;;;14.85;4.57;;;;;;;;;;5023322;28;20063;-58
2022/10/22 09:27:57;;;;;;;28.85;7.22;;;;;;;;;;5031393;28;20096;-59
2022/10/22 09:30:23;;;;;;;8.23;2.83;;;;;;;;;;5033257;28;20020;-59
2022/10/22 09:33:00;;;;;;;15.05;4.45;;;;;;;;;;5031764;28;20037;-59
2022/10/22 09:35:25;;;;;;;7.22;3.17;;;;;;;;;;5014603;28;20632;-59
2022/10/22 09:37:52;;;;;;;18.58;4.32;;;;;;;;;;5018570;28;20072;-59
2022/10/22 09:40:18;;;;;;;16.50;4.63;;;;;;;;;;5032265;28;20021;-59
2022/10/22 09:42:44;;;;;;;15.27;5.05;;;;;;;;;;5031109;28;20180;-59
2022/10/22 09:45:20;;;;;;;7.32;2.70;;;;;;;;;;5032822;28;20045;-59
2022/10/22 09:47:45;;;;;;;14.85;4.38;;;;;;;;;;5031217;28;20037;-58
2022/10/22 09:50:10;;;;;;;16.63;3.45;;;;;;;;;;5032273;28;20491;-59
2022/10/22 09:52:38;;;;;;;8.63;3.27;;;;;;;;;;5030926;28;20453;-58
2022/10/22 09:55:15;;;;;;;11.23;3.67;;;;;;;;;;5032614;28;20447;-59
2022/10/22 09:57:40;;;;;;;21.13;5.15;;;;;;;;;;5030699;28;20030;-58
2022/10/22 10:00:10;;;;;;;7.17;3.43;;;;;;;;;;5028916;28;20014;-59
2022/10/22 10:02:38;;;;;;;10.00;4.47;;;;;;;;;;5030201;28;20784;-59
2022/10/22 10:05:04;;;;;;;10.13;4.85;;;;;;;;;;5032094;28;20018;-59
2022/10/22 10:07:30;;;;;;;15.27;5.07;;;;;;;;;;5030093;28;20076;-59
2022/10/22 10:09:55;;;;;;;18.52;5.85;;;;;;;;;;5031870;28;20017;-59
2022/10/22 10:12:34;;;;;;;21.95;5.05;;;;;;;;;;5029608;28;20400;-58
2022/10/22 10:14:59;;;;;;;;;;;;;;;;;;5032238;28;20076;-58
2022/10/22 10:17:37;;;;;;;9.60;3.72;;;;;;;;;;5030664;28;19913;-59
2022/10/22 10:20:08;;;;;;;16.73;4.35;;;;;;;;;;5030427;28;20079;-58
2022/10/22 10:22:50;;;;;;;21.55;6.53;;;;;;;;;;5028061;28;20033;-58
2022/10/22 10:25:25;;;;;;;9.38;3.40;;;;;;;;;;5031540;28;20014;-59
2022/10/22 10:28:01;;;;;;;6.78;2.78;;;;;;;;;;5025917;28;20060;-59
2022/10/22 10:30:26;;;;;;;18.27;4.63;;;;;;;;;;5031604;28;20096;-58
2022/10/22 10:32:51;;;;;;;11.60;3.72;;;;;;;;;;5030307;28;20121;-59
2022/10/22 10:35:20;;;;;;;22.70;4.18;;;;;;;;;;5031631;28;20370;-58
2022/10/22 10:37:52;;;;;;;11.05;4.43;;;;;;;;;;5030129;28;20103;-58
2022/10/22 10:40:41;;;;;;;14.80;5.20;;;;;;;;;;5031512;28;20021;-59
2022/10/22 10:43:14;;;;;;;11.85;4.05;;;;;;;;;;5030292;28;20061;-59
2022/10/22 10:46:02;;;;;;;11.23;5.50;;;;;;;;;;5031536;28;20036;-59
2022/10/22 10:48:31;;;;;;;13.27;5.68;;;;;;;;;;5024045;28;20061;-59
2022/10/22 10:51:04;;;;;;;15.73;6.47;;;;;;;;;;5031837;28;20063;-58
2022/10/22 10:53:32;;;;;;;17.83;5.28;;;;;;;;;;5029629;28;20500;-59
2022/10/22 10:56:16;;;;;;;11.43;7.85;;;;;;;;;;5031474;28;20096;-59
2022/10/22 10:58:49;;;;;;;13.73;5.80;;;;;;;;;;5030128;28;20048;-59
2022/10/22 11:01:19;;;;;;;10.02;5.70;;;;;;;;;;5031608;28;20032;-59
2022/10/22 11:04:03;;;;;;;14.40;4.65;;;;;;;;;;5029212;28;20153;-59
2022/10/22 11:06:30;;;;;;;10.77;5.65;;;;;;;;;;5030575;28;20033;-59
2022/10/22 11:08:57;;;;;;;8.57;4.55;;;;;;;;;;5031006;28;20025;-58
2022/10/22 11:11:28;;;;;;;16.98;6.72;;;;;;;;;;5028868;28;20061;-59
2022/10/22 11:13:59;;;;;;;11.57;5.15;;;;;;;;;;5031214;28;20448;-59
2022/10/22 11:16:30;;;;;;;13.88;4.60;;;;;;;;;;5029206;28;20029;-59
2022/10/22 11:19:15;;;;;;;10.48;4.55;;;;;;;;;;5030957;28;20017;-59
2022/10/22 11:22:03;;;;;;;17.10;6.32;;;;;;;;;;5029652;28;20041;-59
2022/10/22 11:24:42;;;;;;;15.35;7.03;;;;;;;;;;5031065;28;20025;-59
2022/10/22 11:27:25;;;;;;;35.10;6.10;;;;;;;;;;5028673;28;20068;-58
2022/10/22 11:29:53;;;;;;;14.65;6.20;;;;;;;;;;5020984;28;20161;-59
2022/10/22 11:32:19;;;;;;;11.25;4.03;;;;;;;;;;5030030;28;20033;-58
2022/10/22 11:34:48;;;;;;;15.80;4.43;;;;;;;;;;5030423;28;20527;-59
2022/10/22 11:37:14;;;;;;;9.93;4.25;;;;;;;;;;5026700;28;20045;-59
2022/10/22 11:40:03;;;;;;;10.80;5.38;;;;;;;;;;5038579;28;20028;-58
2022/10/22 11:42:36;;;;;;;11.00;4.47;;;;;;;;;;5028555;28;20041;-58
2022/10/22 11:45:03;;;;;;;15.63;6.38;;;;;;;;;;5030624;28;20040;-59
2022/10/22 11:47:50;;;;;;;7.88;5.22;;;;;;;;;;5028632;28;20053;-58
2022/10/22 11:50:17;;;;;;;11.77;5.35;;;;;;;;;;5030121;28;20025;-59
2022/10/22 11:52:52;;;;;;;17.33;6.45;;;;;;;;;;5028675;28;20936;-59
2022/10/22 11:55:36;;;;;;;15.00;6.80;;;;;;;;;;5030306;28;20467;-59
2022/10/22 11:58:21;;;;;;;14.00;5.25;;;;;;;;;;5028908;28;20073;-58
2022/10/22 12:00:47;;;;;;;10.90;5.35;;;;;;;;;;5027443;28;20038;-58
2022/10/22 12:03:30;;;;;;;13.18;5.70;;;;;;;;;;5027187;28;20507;-58
2022/10/22 12:06:01;;;;;;;9.55;5.78;;;;;;;;;;5030693;28;20025;-58
2022/10/22 12:08:27;;;;;;;12.27;5.85;;;;;;;;;;5028594;28;20508;-58
2022/10/22 12:10:57;;;;;;;10.83;4.53;;;;;;;;;;5029359;28;20017;-58
2022/10/22 12:13:25;;;;;;;19.45;5.00;;;;;;;;;;5027780;28;20449;-58
2022/10/22 12:15:51;;;;;;;12.35;5.07;;;;;;;;;;5030663;28;20025;-57
2022/10/22 12:18:17;;;;;;;18.42;5.13;;;;;;;;;;5028681;28;20045;-58
2022/10/22 12:20:42;;;;;;;10.38;6.30;;;;;;;;;;5030027;28;20025;-58
2022/10/22 12:23:11;;;;;;;10.18;5.50;;;;;;;;;;5029478;28;20045;-59
2022/10/22 12:25:37;;;;;;;11.73;4.10;;;;;;;;;;5035596;28;20029;-59
2022/10/22 12:28:02;;;;;;;12.13;6.32;;;;;;;;;;5032675;28;20035;-58
2022/10/22 12:30:33;;;;;;;9.95;5.30;;;;;;;;;;5033585;28;20045;-58
2022/10/22 12:32:59;;;;;;;8.10;4.40;;;;;;;;;;5032018;28;20034;-58
2022/10/22 12:35:26;;;;;;;13.85;5.00;;;;;;;;;;5033980;28;20061;-59
2022/10/22 12:37:53;;;;;;;10.43;5.13;;;;;;;;;;5032803;28;20079;-59
2022/10/22 12:40:20;;;;;;;14.35;4.50;;;;;;;;;;5029827;28;20032;-58
2022/10/22 12:42:52;;;;;;;13.23;4.60;;;;;;;;;;5032042;28;20067;-59
2022/10/22 12:45:18;;;;;;;17.27;6.18;;;;;;;;;;5034216;28;20109;-59
2022/10/22 12:47:50;;;;;;;11.57;5.28;;;;;;;;;;5032287;28;20042;-59
2022/10/22 12:50:20;;;;;;;14.40;5.28;;;;;;;;;;5034165;28;20600;-62
2022/10/22 12:52:46;;;;;;;20.55;6.38;;;;;;;;;;5030316;28;20608;-59
2022/10/22 12:55:18;;;;;;;10.00;5.47;;;;;;;;;;5032643;28;20013;-59
2022/10/22 12:57:45;;;;;;;10.43;3.90;;;;;;;;;;5032489;28;20503;-59
2022/10/22 13:00:24;;;;;;;8.60;4.50;;;;;;;;;;5033840;28;20049;-60
2022/10/22 13:02:49;;;;;;;6.60;2.88;;;;;;;;;;5030788;28;20040;-58
2022/10/22 13:05:19;;;;;;;11.82;3.58;;;;;;;;;;5033935;28;20013;-58
2022/10/22 13:07:49;;;;;;;11.23;4.57;;;;;;;;;;5031981;28;20504;-58
2022/10/22 13:10:30;;;;;;;13.93;5.18;;;;;;;;;;5033310;28;20104;-58
2022/10/22 13:12:56;;;;;;;13.75;4.45;;;;;;;;;;5029159;28;20038;-58
2022/10/22 13:15:32;;;;;;;11.10;3.13;;;;;;;;;;5033787;28;20021;-58
2022/10/22 13:18:05;;;;;;;11.25;3.92;;;;;;;;;;5032132;28;20095;-59
2022/10/22 13:20:30;;;;;;;16.35;4.90;;;;;;;;;;5032516;28;20009;-59
2022/10/22 13:22:58;;;;;;;14.40;3.90;;;;;;;;;;5031088;28;20037;-58
2022/10/22 13:25:25;;;;;;;12.90;4.05;;;;;;;;;;5033066;28;20049;-59
2022/10/22 13:27:53;;;;;;;25.52;5.70;;;;;;;;;;5032377;28;20121;-59
2022/10/22 13:30:26;;;;;;;11.10;4.80;;;;;;;;;;5033472;28;20469;-58
2022/10/22 13:32:56;;;;;;;8.50;3.33;;;;;;;;;;5031412;28;20060;-59
2022/10/22 13:35:26;;;;;;;12.00;4.45;;;;;;;;;;5032231;28;20041;-59
2022/10/22 13:37:51;;;;;;;10.63;4.22;;;;;;;;;;5031908;28;20067;-59
2022/10/22 13:40:16;;;;;;;12.60;4.18;;;;;;;;;;5033096;28;20021;-59
2022/10/22 13:42:42;;;;;;;17.58;5.43;;;;;;;;;;5031267;28;20034;-59
2022/10/22 13:45:07;;;;;;;8.17;3.50;;;;;;;;;;5030786;28;20136;-59
2022/10/22 13:47:32;;;;;;;14.95;4.13;;;;;;;;;;5030439;28;20049;-59
2022/10/22 13:49:58;;;;;;;29.40;6.65;;;;;;;;;;5033226;28;20021;-59
2022/10/22 13:52:35;;;;;;;21.08;3.55;;;;;;;;;;5030797;28;20065;-59
2022/10/22 13:55:00;;;;;;;22.63;3.95;;;;;;;;;;5032108;28;20040;-58
2022/10/22 13:57:26;;;;;;;12.82;4.78;;;;;;;;;;5030207;28;20041;-59
2022/10/22 13:59:51;;;;;;;18.25;3.63;;;;;;;;;;5032359;28;20026;-59
2022/10/22 14:02:16;;;;;;;8.67;4.10;;;;;;;;;;5031079;28;20464;-59
2022/10/22 14:04:41;;;;;;;19.38;4.53;;;;;;;;;;5032849;28;20032;-59
2022/10/22 14:07:13;;;;;;;13.43;4.13;;;;;;;;;;5031183;28;20045;-59
2022/10/22 14:09:38;;;;;;;10.15;3.45;;;;;;;;;;5032695;28;20021;-59
2022/10/22 14:12:11;;;;;;;10.50;4.95;;;;;;;;;;5031322;28;20048;-59
2022/10/22 14:14:37;;;;;;;11.95;3.78;;;;;;;;;;5032645;28;20076;-59
2022/10/22 14:17:02;;;;;;;26.05;4.15;;;;;;;;;;5031095;28;20042;-59
2022/10/22 14:19:28;;;;;;;18.92;4.80;;;;;;;;;;5032670;28;20013;-59
2022/10/22 14:21:54;;;;;;;11.63;5.03;;;;;;;;;;5030803;28;20457;-59
2022/10/22 14:24:19;;;;;;;11.68;3.53;;;;;;;;;;5032680;28;20025;-59
2022/10/22 14:26:44;;;;;;;10.80;5.82;;;;;;;;;;5030634;28;20428;-59
2022/10/22 14:29:09;;;;;;;16.90;4.53;;;;;;;;;;5031734;28;20033;-59
2022/10/22 14:31:36;;;;;;;11.57;5.35;;;;;;;;;;5029993;28;20075;-59